createdAt,value
2018-07-09T00:01:21.009Z,21.20
2018-07-09T00:03:50.166Z,21.17
2018-07-09T00:06:29.472Z,21.16
2018-07-09T00:08:58.695Z,21.11
2018-07-09T00:11:27.861Z,21.06
2018-07-09T00:13:56.908Z,21.04
2018-07-09T00:16:27.675Z,21.02
2018-07-09T00:18:56.901Z,21.00
2018-07-09T00:21:30.425Z,20.96
2018-07-09T00:23:59.526Z,20.91
2018-07-09T00:26:28.650Z,20.86
2018-07-09T00:28:57.727Z,20.83
2018-07-09T00:31:26.897Z,20.80
2018-07-09T00:33:56.201Z,20.74
2018-07-09T00:36:28.182Z,20.72
2018-07-09T00:38:57.428Z,20.67
2018-07-09T00:41:27.493Z,20.65
2018-07-09T00:43:56.852Z,20.63
2018-07-09T00:46:26.134Z,20.60
2018-07-09T00:48:55.808Z,20.58
2018-07-09T00:51:25.050Z,20.55
2018-07-09T00:53:56.509Z,20.53
2018-07-09T00:56:25.566Z,20.50
2018-07-09T00:58:54.801Z,20.49
2018-07-09T01:01:23.925Z,20.47
2018-07-09T01:03:53.417Z,20.45
2018-07-09T01:06:23.825Z,20.44
2018-07-09T01:08:53.753Z,20.41
2018-07-09T01:11:41.224Z,20.38
2018-07-09T01:14:13.605Z,20.32
2018-07-09T01:16:42.718Z,20.27
2018-07-09T01:19:11.970Z,20.23
2018-07-09T01:21:41.121Z,20.16
2018-07-09T01:33:37.232Z,19.06
2018-07-09T01:36:07.523Z,19.10
2018-07-09T01:38:36.674Z,19.18
2018-07-09T01:41:05.835Z,19.27
2018-07-09T01:43:35.029Z,19.37
2018-07-09T01:46:04.299Z,19.41
2018-07-09T01:48:33.543Z,19.47
2018-07-09T01:51:03.951Z,19.52
2018-07-09T01:53:36.085Z,19.55
2018-07-09T01:56:05.448Z,19.59
2018-07-09T01:58:37.522Z,19.60
2018-07-09T02:01:07.061Z,19.60
2018-07-09T02:03:36.249Z,19.60
2018-07-09T02:06:06.056Z,19.61
2018-07-09T02:08:35.401Z,19.59
2018-07-09T02:11:04.559Z,19.57
2018-07-09T02:13:34.662Z,19.57
2018-07-09T02:16:05.485Z,19.56
2018-07-09T02:18:34.848Z,19.56
2018-07-09T02:21:03.934Z,19.56
2018-07-09T02:23:33.755Z,19.52
2018-07-09T02:26:03.053Z,19.52
2018-07-09T02:28:32.362Z,19.50
2018-07-09T02:31:01.673Z,19.50
2018-07-09T02:33:31.230Z,19.45
2018-07-09T02:36:00.770Z,19.38
2018-07-09T02:38:31.373Z,19.30
2018-07-09T02:41:00.872Z,19.26
2018-07-09T02:43:30.376Z,19.22
2018-07-09T02:46:00.148Z,19.19
2018-07-09T02:48:29.705Z,19.17
2018-07-09T02:50:59.058Z,19.15
2018-07-09T02:53:28.426Z,19.14
2018-07-09T02:55:57.809Z,19.13
2018-07-09T02:58:26.997Z,19.10
2018-07-09T03:00:56.360Z,19.08
2018-07-09T03:03:25.801Z,19.05
2018-07-09T03:05:55.435Z,19.02
2018-07-09T03:08:24.986Z,19.02
2018-07-09T03:10:54.679Z,18.99
2018-07-09T03:13:24.088Z,18.93
2018-07-09T03:15:53.406Z,18.88
2018-07-09T03:18:22.462Z,18.81
2018-07-09T03:20:53.123Z,18.76
2018-07-09T03:23:22.311Z,18.71
2018-07-09T03:25:51.636Z,18.67
2018-07-09T03:28:21.888Z,18.66
2018-07-09T03:30:51.959Z,18.67
2018-07-09T03:33:21.360Z,18.64
2018-07-09T03:35:50.666Z,18.64
2018-07-09T03:38:20.179Z,18.60
2018-07-09T03:40:49.611Z,18.58
2018-07-09T03:43:19.121Z,18.58
2018-07-09T03:45:49.138Z,18.58
2018-07-09T03:48:19.336Z,18.57
2018-07-09T03:50:48.894Z,18.58
2018-07-09T03:53:18.299Z,18.58
2018-07-09T03:55:47.405Z,18.61
2018-07-09T03:58:17.450Z,18.68
2018-07-09T04:00:47.320Z,18.79
2018-07-09T04:03:16.817Z,18.93
2018-07-09T04:05:46.705Z,19.12
2018-07-09T04:08:16.161Z,19.31
2018-07-09T04:10:46.538Z,19.52
2018-07-09T04:13:15.925Z,19.74
2018-07-09T04:15:45.906Z,19.99
2018-07-09T04:18:15.186Z,20.25
2018-07-09T04:20:46.095Z,20.48
2018-07-09T04:23:15.618Z,20.73
2018-07-09T04:25:46.827Z,21.04
2018-07-09T04:28:16.028Z,21.36
2018-07-09T04:30:45.678Z,21.68
2018-07-09T04:33:15.283Z,21.99
2018-07-09T04:35:44.751Z,22.29
2018-07-09T04:38:14.218Z,22.54
2018-07-09T04:40:43.608Z,22.71
2018-07-09T04:43:13.931Z,22.87
2018-07-09T04:45:43.491Z,23.09
2018-07-09T04:48:14.247Z,23.41
2018-07-09T04:50:43.832Z,23.75
2018-07-09T04:53:13.433Z,24.11
2018-07-09T04:55:42.516Z,24.49
2018-07-09T04:58:11.817Z,24.81
2018-07-09T05:00:41.116Z,25.02
2018-07-09T05:03:11.026Z,25.19
2018-07-09T05:05:40.076Z,25.38
2018-07-09T05:08:09.663Z,25.61
2018-07-09T05:10:40.054Z,25.88
2018-07-09T05:13:09.205Z,26.18
2018-07-09T05:15:38.692Z,26.44
2018-07-09T05:18:07.869Z,26.70
2018-07-09T05:20:36.889Z,26.97
2018-07-09T05:23:06.392Z,27.30
2018-07-09T05:25:35.843Z,27.57
2018-07-09T05:28:05.404Z,27.88
2018-07-09T05:30:34.826Z,28.15
2018-07-09T05:33:07.656Z,28.38
2018-07-09T05:35:37.587Z,28.60
2018-07-09T05:38:07.236Z,28.84
2018-07-09T05:40:36.785Z,29.10
2018-07-09T05:43:07.201Z,29.42
2018-07-09T05:45:37.134Z,29.71
2018-07-09T05:48:07.622Z,29.99
2018-07-09T05:50:38.619Z,30.27
2018-07-09T05:53:08.653Z,30.51
2018-07-09T05:55:38.705Z,30.70
2018-07-09T05:58:07.678Z,30.90
2018-07-09T06:00:38.288Z,30.95
2018-07-09T06:03:07.920Z,30.96
2018-07-09T06:05:37.637Z,30.92
2018-07-09T06:08:07.046Z,30.76
2018-07-09T06:10:37.303Z,30.68
2018-07-09T06:13:08.276Z,30.60
2018-07-09T06:15:39.133Z,30.65
2018-07-09T06:18:09.228Z,30.84
2018-07-09T06:20:38.817Z,31.13
2018-07-09T06:23:10.918Z,31.34
2018-07-09T06:25:40.739Z,31.45
2018-07-09T06:28:11.120Z,31.54
2018-07-09T06:30:41.769Z,31.65
2018-07-09T06:33:11.351Z,31.82
2018-07-09T06:35:41.226Z,31.97
2018-07-09T06:38:11.528Z,32.18
2018-07-09T06:40:41.686Z,32.42
2018-07-09T06:45:59.288Z,32.31
2018-07-09T06:48:34.609Z,31.99
2018-07-09T06:51:09.990Z,31.80
2018-07-09T06:53:43.529Z,31.67
2018-07-09T06:56:16.421Z,31.63
2018-07-09T06:58:48.577Z,31.76
2018-07-09T07:01:21.341Z,31.83
2018-07-09T07:03:58.138Z,32.00
2018-07-09T07:06:35.435Z,32.09
2018-07-09T07:09:12.062Z,31.94
2018-07-09T07:11:44.576Z,31.64
2018-07-09T07:14:21.301Z,31.39
2018-07-09T07:16:58.712Z,31.25
2018-07-09T07:19:32.441Z,31.15
2018-07-09T07:22:09.281Z,31.12
2018-07-09T07:24:40.582Z,30.91
2018-07-09T07:27:17.008Z,30.70
2018-07-09T07:29:48.608Z,30.56
2018-07-09T07:32:26.078Z,30.51
2018-07-09T07:34:59.250Z,30.73
2018-07-09T07:37:33.871Z,30.98
2018-07-09T07:40:06.236Z,31.22
2018-07-09T07:42:38.309Z,31.56
2018-07-09T07:45:15.559Z,31.64
2018-07-09T07:47:54.104Z,31.47
2018-07-09T07:50:24.805Z,31.20
2018-07-09T07:53:03.715Z,30.99
2018-07-09T07:55:47.423Z,30.97
2018-07-09T08:01:05.342Z,30.93
2018-07-09T08:03:39.883Z,30.39
2018-07-09T08:06:18.827Z,30.44
2018-07-09T08:08:55.729Z,30.77
2018-07-09T08:11:47.729Z,31.14
2018-07-09T08:14:01.239Z,31.63
2018-07-09T08:16:32.395Z,31.95
2018-07-09T08:19:06.927Z,32.20
2018-07-09T08:21:37.522Z,32.58
2018-07-09T08:24:13.547Z,32.96
2018-07-09T08:26:43.786Z,33.04
2018-07-09T08:29:17.336Z,33.08
2018-07-09T08:31:52.944Z,33.06
2018-07-09T08:34:24.973Z,33.07
2018-07-09T08:36:57.166Z,33.06
2018-07-09T08:39:30.229Z,33.01
2018-07-09T08:42:01.175Z,33.08
2018-07-09T08:44:34.410Z,33.09
2018-07-09T08:47:04.762Z,33.19
2018-07-09T08:49:38.261Z,33.43
2018-07-09T08:52:12.079Z,33.81
2018-07-09T08:54:43.755Z,34.12
2018-07-09T08:57:13.485Z,34.45
2018-07-09T08:59:43.101Z,34.79
2018-07-09T09:02:13.193Z,34.95
2018-07-09T09:04:43.997Z,34.94
2018-07-09T09:07:14.113Z,34.88
2018-07-09T09:09:43.683Z,34.85
2018-07-09T09:12:12.798Z,34.74
2018-07-09T09:14:43.555Z,34.75
2018-07-09T09:17:13.006Z,34.70
2018-07-09T09:19:44.848Z,34.44
2018-07-09T09:22:16.477Z,33.99
2018-07-09T09:24:47.088Z,33.82
2018-07-09T09:27:17.663Z,33.87
2018-07-09T09:29:48.548Z,34.00
2018-07-09T09:32:18.781Z,33.90
2018-07-09T09:34:49.664Z,33.80
2018-07-09T09:37:19.696Z,33.71
2018-07-09T09:39:49.267Z,33.58
2018-07-09T09:42:21.070Z,33.30
2018-07-09T09:44:50.405Z,33.05
2018-07-09T09:47:20.349Z,33.08
2018-07-09T09:49:49.739Z,33.20
2018-07-09T09:52:19.281Z,33.38
2018-07-09T09:54:49.991Z,33.49
2018-07-09T09:57:24.165Z,33.43
2018-07-09T09:59:56.045Z,33.45
2018-07-09T10:02:29.107Z,33.57
2018-07-09T10:05:01.195Z,33.79
2018-07-09T10:07:31.378Z,34.08
2018-07-09T10:10:06.022Z,34.44
2018-07-09T10:12:35.857Z,34.73
2018-07-09T10:15:05.630Z,35.01
2018-07-09T10:17:36.174Z,35.22
2018-07-09T10:20:05.804Z,35.21
2018-07-09T10:22:35.752Z,34.86
2018-07-09T10:25:05.174Z,34.49
2018-07-09T10:27:35.816Z,34.11
2018-07-09T10:30:08.474Z,33.83
2018-07-09T10:32:37.608Z,33.88
2018-07-09T10:35:07.187Z,33.94
2018-07-09T10:37:36.533Z,33.86
2018-07-09T10:40:07.383Z,33.83
2018-07-09T10:42:40.098Z,33.66
2018-07-09T10:45:09.634Z,33.51
2018-07-09T10:47:40.860Z,33.48
2018-07-09T10:50:12.563Z,33.47
2018-07-09T10:52:42.813Z,33.49
2018-07-09T10:55:15.026Z,33.38
2018-07-09T10:57:44.588Z,33.37
2018-07-09T11:00:14.144Z,33.45
2018-07-09T11:02:43.237Z,33.49
2018-07-09T11:05:13.145Z,33.49
2018-07-09T11:07:42.760Z,33.37
2018-07-09T11:10:12.711Z,33.07
2018-07-09T11:12:42.543Z,32.61
2018-07-09T11:15:12.723Z,32.20
2018-07-09T11:17:42.251Z,31.91
2018-07-09T11:20:12.484Z,31.64
2018-07-09T11:23:13.729Z,31.40
2018-07-09T11:25:44.182Z,31.25
2018-07-09T11:28:13.524Z,31.26
2018-07-09T11:30:44.005Z,31.08
2018-07-09T11:33:14.656Z,30.91
2018-07-09T11:35:44.074Z,30.83
2018-07-09T11:38:13.954Z,30.96
2018-07-09T11:40:45.502Z,31.09
2018-07-09T11:43:15.503Z,31.06
2018-07-09T11:45:45.830Z,31.00
2018-07-09T11:48:18.696Z,31.10
2018-07-09T11:50:53.002Z,31.12
2018-07-09T11:53:22.744Z,31.16
2018-07-09T11:55:53.710Z,31.27
2018-07-09T11:58:23.401Z,31.31
2018-07-09T12:00:54.092Z,31.30
2018-07-09T12:03:24.183Z,31.20
2018-07-09T12:05:53.712Z,31.17
2018-07-09T12:08:23.180Z,31.14
2018-07-09T12:10:54.469Z,30.99
2018-07-09T12:13:24.964Z,30.95
2018-07-09T12:15:54.814Z,31.03
2018-07-09T12:18:24.354Z,31.02
2018-07-09T12:20:54.081Z,31.07
2018-07-09T12:23:23.146Z,31.12
2018-07-09T12:25:52.711Z,30.98
2018-07-09T12:28:23.760Z,30.82
2018-07-09T12:30:58.364Z,30.64
2018-07-09T12:33:29.573Z,30.44
2018-07-09T12:36:01.003Z,30.26
2018-07-09T12:38:30.350Z,30.12
2018-07-09T12:40:59.824Z,30.03
2018-07-09T12:43:30.459Z,29.97
2018-07-09T12:46:02.288Z,30.01
2018-07-09T12:48:33.503Z,30.07
2018-07-09T12:51:03.366Z,30.12
2018-07-09T12:53:35.265Z,30.17
2018-07-09T12:56:05.430Z,30.19
2018-07-09T13:08:28.724Z,30.23
2018-07-09T13:49:11.151Z,32.19
2018-07-09T13:51:40.637Z,31.87
2018-07-09T13:54:10.457Z,31.85
2018-07-09T13:56:51.888Z,31.72
2018-07-09T13:59:21.062Z,31.68
2018-07-09T14:01:51.505Z,31.62
2018-07-09T14:04:22.808Z,31.63
2018-07-09T14:06:59.113Z,31.73
2018-07-09T14:09:29.607Z,31.89
2018-07-09T14:11:59.220Z,31.90
2018-07-09T14:14:28.782Z,31.82
2018-07-09T14:16:59.367Z,31.65
2018-07-09T14:21:38.066Z,31.39
2018-07-09T14:24:08.679Z,30.81
2018-07-09T14:26:38.538Z,30.70
2018-07-09T14:29:09.653Z,30.65
2018-07-09T14:31:40.817Z,30.67
2018-07-09T14:34:10.775Z,30.75
2018-07-09T14:36:41.396Z,30.86
2018-07-09T14:39:11.697Z,31.05
2018-07-09T14:41:41.571Z,31.32
2018-07-09T14:44:10.684Z,31.58
2018-07-09T14:46:40.865Z,31.82
2018-07-09T14:49:11.415Z,32.03
2018-07-09T14:51:41.650Z,32.23
2018-07-09T14:54:11.534Z,32.29
2018-07-09T14:56:41.914Z,32.15
2018-07-09T14:59:13.290Z,31.81
2018-07-09T15:01:44.512Z,31.51
2018-07-09T15:04:15.496Z,31.27
2018-07-09T15:06:45.408Z,31.04
2018-07-09T15:09:15.259Z,30.87
2018-07-09T15:11:44.475Z,30.70
2018-07-09T15:14:14.086Z,30.54
2018-07-09T15:16:43.705Z,30.32
2018-07-09T15:19:13.194Z,30.11
2018-07-09T15:21:59.502Z,29.94
2018-07-09T15:24:29.293Z,29.74
2018-07-09T15:26:58.596Z,29.58
2018-07-09T15:29:28.080Z,29.42
2018-07-09T15:32:14.566Z,29.31
2018-07-09T15:34:46.065Z,29.21
2018-07-09T15:37:16.068Z,29.19
2018-07-09T15:39:52.765Z,29.19
2018-07-09T15:42:24.921Z,29.26
2018-07-09T15:44:54.404Z,29.34
2018-07-09T15:47:28.311Z,29.36
2018-07-09T15:49:57.737Z,29.34
2018-07-09T15:52:27.631Z,29.34
2018-07-09T15:54:58.013Z,29.32
2018-07-09T15:57:36.488Z,29.29
2018-07-09T16:00:07.034Z,29.25
2018-07-09T16:02:43.721Z,29.22
2018-07-09T16:05:31.995Z,29.16
2018-07-09T16:08:17.857Z,29.05
2018-07-09T16:10:57.041Z,28.88
2018-07-09T16:13:37.000Z,28.70
2018-07-09T16:16:11.084Z,28.50
2018-07-09T16:18:57.004Z,28.36
2018-07-09T16:21:31.322Z,28.23
2018-07-09T16:24:28.009Z,28.16
2018-07-09T16:27:30.380Z,28.08
2018-07-09T16:30:22.099Z,27.98
2018-07-09T16:32:51.654Z,27.88
2018-07-09T16:35:23.226Z,27.86
2018-07-09T16:38:22.099Z,27.86
2018-07-09T16:41:18.344Z,27.82
2018-07-09T16:44:17.251Z,27.76
2018-07-09T16:46:57.583Z,27.71
2018-07-09T16:49:28.153Z,27.71
2018-07-09T16:51:58.254Z,27.75
2018-07-09T16:54:31.423Z,27.78
2018-07-09T16:57:12.582Z,27.79
2018-07-09T16:59:44.148Z,27.76
2018-07-09T17:02:20.340Z,27.73
2018-07-09T17:04:50.007Z,27.71
2018-07-09T17:07:20.295Z,27.70
2018-07-09T17:09:55.003Z,27.72
2018-07-09T17:12:25.552Z,27.73
2018-07-09T17:14:56.011Z,27.73
2018-07-09T17:17:32.419Z,27.69
2018-07-09T17:20:04.156Z,27.67
2018-07-09T17:22:38.190Z,27.63
2018-07-09T17:25:13.398Z,27.60
2018-07-09T17:27:48.923Z,28.01
2018-07-09T17:30:18.580Z,27.92
2018-07-09T17:32:48.787Z,27.78
2018-07-09T17:35:18.017Z,27.67
2018-07-09T17:37:54.989Z,27.55
2018-07-09T17:40:24.380Z,27.47
2018-07-09T17:42:53.473Z,27.40
2018-07-09T17:45:24.683Z,27.36
2018-07-09T17:47:54.258Z,27.27
2018-07-09T17:50:25.497Z,27.21
2018-07-09T17:52:57.683Z,27.17
2018-07-09T17:55:29.046Z,27.14
2018-07-09T17:57:58.622Z,27.15
2018-07-09T18:00:30.534Z,27.12
2018-07-09T18:03:00.503Z,27.10
2018-07-09T18:05:42.899Z,27.08
2018-07-09T18:08:12.535Z,27.06
2018-07-09T19:13:59.689Z,25.18
2018-07-09T19:16:38.224Z,25.29
2018-07-09T19:19:29.477Z,25.36
2018-07-09T19:22:08.574Z,25.40
2018-07-09T19:24:37.347Z,25.45
2018-07-09T19:27:05.010Z,25.51
2018-07-09T19:29:36.593Z,25.54
2018-07-09T19:32:05.260Z,25.55
2018-07-09T19:34:36.913Z,25.56
2018-07-09T19:37:06.651Z,25.53
2018-07-09T19:39:34.538Z,25.53
2018-07-09T19:42:04.111Z,25.48
2018-07-09T19:44:31.908Z,25.42
2018-07-09T19:47:00.063Z,25.34
2018-07-09T19:49:34.839Z,25.25
2018-07-09T19:52:02.756Z,25.16
2018-07-09T19:54:30.605Z,25.08
2018-07-09T19:56:59.362Z,25.01
2018-07-09T19:59:31.475Z,24.95
2018-07-09T20:01:59.563Z,24.89
2018-07-09T20:04:27.675Z,24.83
2018-07-09T20:06:55.229Z,24.79
2018-07-09T20:09:28.115Z,24.73
2018-07-09T20:12:01.993Z,24.65
2018-07-09T20:14:36.894Z,24.63
2018-07-09T20:17:14.092Z,24.59
2018-07-09T20:19:42.255Z,24.56
2018-07-09T20:22:09.936Z,24.57
2018-07-09T20:24:38.987Z,24.56
2018-07-09T20:27:06.873Z,24.57
2018-07-09T20:29:34.517Z,24.54
2018-07-09T20:32:02.153Z,24.53
2018-07-09T20:34:32.396Z,24.52
2018-07-09T20:37:00.325Z,24.50
2018-07-09T20:39:29.551Z,24.51
2018-07-09T20:41:57.153Z,24.51
2018-07-09T20:44:24.933Z,24.50
2018-07-09T20:46:52.611Z,24.49
2018-07-09T20:49:20.966Z,24.48
2018-07-09T20:51:49.711Z,24.47
2018-07-09T20:54:18.622Z,24.44
2018-07-09T20:56:46.674Z,24.42
2018-07-09T20:59:14.527Z,24.39
2018-07-09T21:01:44.817Z,24.34
2018-07-09T21:04:19.217Z,24.34
2018-07-09T21:06:47.029Z,24.32
2018-07-09T21:09:14.581Z,24.30
2018-07-09T21:11:42.256Z,24.30
2018-07-09T21:14:09.965Z,24.27
2018-07-09T21:16:37.715Z,24.27
2018-07-09T21:19:06.489Z,24.23
2018-07-09T21:21:36.387Z,24.20
2018-07-09T21:24:03.990Z,24.16
2018-07-09T21:26:31.671Z,24.12
2018-07-09T21:28:59.260Z,24.07
2018-07-09T21:31:26.965Z,24.06
2018-07-09T21:33:54.673Z,24.03
2018-07-09T21:36:22.533Z,23.99
2018-07-09T21:38:52.656Z,23.94
2018-07-09T21:41:20.352Z,23.88
2018-07-09T21:43:50.616Z,23.83
2018-07-09T21:46:18.186Z,23.77
2018-07-09T21:48:46.650Z,23.72
2018-07-09T21:51:14.210Z,23.66
2018-07-09T21:53:41.792Z,23.61
2018-07-09T21:56:09.377Z,23.53
2018-07-09T21:58:36.959Z,23.44
2018-07-09T22:01:04.508Z,23.36
2018-07-09T22:03:32.049Z,23.27
2018-07-09T22:05:59.606Z,23.15
2018-07-09T22:08:27.224Z,23.10
2018-07-09T22:10:54.783Z,23.04
2018-07-09T22:13:22.362Z,23.03
2018-07-09T22:15:49.960Z,23.00
2018-07-09T22:18:17.542Z,23.01
2018-07-09T22:20:45.080Z,22.99
2018-07-09T22:23:12.680Z,23.00
2018-07-09T22:25:40.266Z,22.97
2018-07-09T22:28:07.876Z,22.96
2018-07-09T22:30:37.153Z,22.93
2018-07-09T22:33:06.356Z,22.83
2018-07-09T22:35:35.675Z,22.72
2018-07-09T22:38:04.881Z,22.63
2018-07-09T22:40:34.069Z,22.55
2018-07-09T22:43:20.660Z,22.52
2018-07-09T22:45:49.755Z,22.43
2018-07-09T22:48:18.874Z,22.40
2018-07-09T22:50:48.049Z,22.40
2018-07-09T22:53:17.221Z,22.44
2018-07-09T22:56:05.680Z,22.48
2018-07-09T22:58:35.105Z,22.44
2018-07-09T23:01:06.276Z,22.41
2018-07-09T23:03:35.549Z,22.40
2018-07-09T23:06:05.045Z,22.36
2018-07-09T23:08:35.004Z,22.35
2018-07-09T23:17:10.897Z,22.04
2018-07-09T23:22:02.483Z,21.82
2018-07-09T23:24:30.177Z,21.62
2018-07-09T23:26:58.017Z,21.67
2018-07-09T23:29:25.657Z,21.71
2018-07-09T23:31:53.314Z,21.75
2018-07-09T23:34:21.059Z,21.77
2018-07-09T23:36:49.810Z,21.81
2018-07-09T23:39:17.368Z,21.81
2018-07-09T23:41:45.315Z,21.79
2018-07-09T23:44:12.849Z,21.77
2018-07-09T23:46:40.560Z,21.76
2018-07-09T23:49:08.145Z,21.72
2018-07-09T23:51:35.796Z,21.69
2018-07-09T23:54:03.715Z,21.66
2018-07-09T23:59:57.278Z,21.61
